F/V Clipper Express — WDA2144 — position and weather

sailwx.info

Track history (hours):
 
Tides and Currents Weather Stations Pressure Air Temp Water Temp Dewpoint Dewpoint Depression Visibility Wind Speed Wind Dir Waves Ship Positions

F/V Clipper Express

Owner: CLIPPER EXPRESS LLC, SEATTLE, WA. More information available from US FCC via Universal Licensing System and Coast Guard Vessel Documentation Center.

Last reported at 2017-Nov-26 01:50 UTC. Time now 2017-Dec-12 18:05 UTC.
Position N 47°17' W 122°27'.
Warning: this ship's position is 16 days out of date.

Length 54 m; draft 6.2 m.

MMSI: 338276000.

Date/timePositionNaut miles runAvg speedWind from/ knotsBaromVisibWave heightAir tempDewpointWater temp
2017-Nov-26 01:50N 47°17' W 122°27'2 6.0
2017-Nov-26 01:30N 47°19' W 122°28'5 9.2
2017-Nov-26 01:00N 47°22' W 122°23'4 8.2
2017-Nov-26 00:30N 47°26' W 122°25'5 9.7
2017-Nov-26 00:00N 47°31' W 122°27'510.0
2017-Nov-25 23:30N 47°36' W 122°28'4 8.2
2017-Nov-25 22:59N 47°40' W 122°29'4 8.1
2017-Nov-25 22:30N 47°44' W 122°27'4 8.3
2017-Nov-25 22:00N 47°48' W 122°28'4 8.8
2017-Nov-25 21:30N 47°52' W 122°29'4 7.6
2017-Nov-25 21:00N 47°56' W 122°32'34 7.0
2017-Nov-25 16:08N 48°09' W 123°19'2 9.5
2017-Nov-25 15:58N 48°08' W 123°21'4 1.0
2017-Nov-25 12:17N 48°08' W 123°27'0 0.0
2017-Nov-24 20:31N 48°08' W 123°27'0 0.0
2017-Nov-24 18:14N 48°08' W 123°27'0 0.0
2017-Nov-24 10:22N 48°08' W 123°27'0 0.0
2017-Nov-24 08:09N 48°08' W 123°27'0 0.0
2017-Nov-23 23:03N 48°08' W 123°27'0 0.0
2017-Nov-23 22:04N 48°08' W 123°27'0 0.0
2017-Nov-23 21:34N 48°08' W 123°27'0 0.0
2017-Nov-23 21:25N 48°08' W 123°27'0 0.0
2017-Nov-23 20:11N 48°08' W 123°27'0 0.1
2017-Nov-23 19:56N 48°08' W 123°27'0 0.0
2017-Nov-23 19:20N 48°08' W 123°27'0 0.0
2017-Nov-23 16:02N 48°08' W 123°27'0 0.0
2017-Nov-23 15:47N 48°08' W 123°27'0 0.0
2017-Nov-23 15:29N 48°08' W 123°27'0 0.0
2017-Nov-23 14:59N 48°08' W 123°27'0 0.0
2017-Nov-23 13:10N 48°08' W 123°27'0 0.0
2017-Nov-23 11:49N 48°08' W 123°27'0 0.0
2017-Nov-23 11:23N 48°08' W 123°27'0 0.0
2017-Nov-23 10:50N 48°08' W 123°27'0 0.0
2017-Nov-23 10:23N 48°08' W 123°27'0 0.0
2017-Nov-23 07:34N 48°08' W 123°27'0 0.1
2017-Nov-23 07:28N 48°08' W 123°27'0 0.0
2017-Nov-23 05:00N 48°08' W 123°27'0 0.0
2017-Nov-23 02:08N 48°08' W 123°27'0 0.0
2017-Nov-22 21:02N 48°08' W 123°27'0 0.0
2017-Nov-22 19:01N 48°08' W 123°27'  
2017-Nov-20 00:06N 48°08' W 123°27'0 0.0
2017-Nov-19 20:03N 48°08' W 123°27'0 0.1
2017-Nov-19 20:00N 48°08' W 123°27'0 0.0
2017-Nov-19 15:45N 48°08' W 123°27'0 0.0
2017-Nov-19 15:30N 48°08' W 123°27'0 0.0
2017-Nov-19 15:00N 48°08' W 123°27'0 0.0
2017-Nov-19 13:25N 48°08' W 123°27'0 0.0
2017-Nov-19 10:27N 48°08' W 123°27'0 0.0
2017-Nov-19 09:40N 48°08' W 123°27'0 0.0
2017-Nov-19 04:19N 48°08' W 123°27'0 0.0
2017-Nov-19 03:58N 48°08' W 123°27'0 0.0
2017-Nov-19 00:34N 48°08' W 123°27'0 0.0
2017-Nov-19 00:10N 48°08' W 123°27'0 0.0
2017-Nov-18 15:52N 48°08' W 123°27'0 0.0
2017-Nov-18 14:03N 48°08' W 123°27'0 0.0
2017-Nov-18 03:01N 48°08' W 123°27'0 0.0
2017-Nov-18 02:50N 48°08' W 123°27'0 0.0
2017-Nov-17 22:28N 48°08' W 123°27'0 0.0
2017-Nov-17 18:01N 48°08' W 123°27'0 0.0
2017-Nov-17 17:58N 48°08' W 123°27'0 0.0
2017-Nov-17 17:20N 48°08' W 123°27'0 0.0
2017-Nov-17 16:56N 48°08' W 123°27'0 0.0
2017-Nov-17 16:29N 48°08' W 123°27'0 0.0
2017-Nov-17 13:52N 48°08' W 123°27'0 0.0
2017-Nov-17 13:23N 48°08' W 123°27'0 0.0
2017-Nov-17 09:37N 48°08' W 123°27'0 0.1
2017-Nov-17 09:28N 48°08' W 123°27'0 0.0
2017-Nov-17 08:58N 48°08' W 123°27'0 0.0
2017-Nov-17 05:52N 48°08' W 123°27'0 0.0
2017-Nov-16 15:46N 48°08' W 123°27'0 0.0
2017-Nov-16 03:06N 48°08' W 123°27'  
Track history (hours):
 
Tides and Currents Weather Stations Pressure Air Temp Water Temp Dewpoint Dewpoint Depression Visibility Wind Speed Wind Dir Waves Ship Positions

F/V Clipper Express

Owner: CLIPPER EXPRESS LLC, SEATTLE, WA. More information available from US FCC via Universal Licensing System and Coast Guard Vessel Documentation Center.

Last reported at 2017-Nov-26 01:50 UTC. Time now 2017-Dec-12 18:05 UTC.
Position N 47°17' W 122°27'.
Warning: this ship's position is 16 days out of date.

Length 54 m; draft 6.2 m.

MMSI: 338276000.

Date/timePositionNaut miles runAvg speedWind from/ knotsBaromVisibWave heightAir tempDewpointWater temp
2017-Nov-26 01:50N 47°17' W 122°27'2 6.0
2017-Nov-26 01:30N 47°19' W 122°28'5 9.2
2017-Nov-26 01:00N 47°22' W 122°23'4 8.2
2017-Nov-26 00:30N 47°26' W 122°25'5 9.7
2017-Nov-26 00:00N 47°31' W 122°27'510.0
2017-Nov-25 23:30N 47°36' W 122°28'4 8.2
2017-Nov-25 22:59N 47°40' W 122°29'4 8.1
2017-Nov-25 22:30N 47°44' W 122°27'4 8.3
2017-Nov-25 22:00N 47°48' W 122°28'4 8.8
2017-Nov-25 21:30N 47°52' W 122°29'4 7.6
2017-Nov-25 21:00N 47°56' W 122°32'34 7.0
2017-Nov-25 16:08N 48°09' W 123°19'2 9.5
2017-Nov-25 15:58N 48°08' W 123°21'4 1.0
2017-Nov-25 12:17N 48°08' W 123°27'0 0.0
2017-Nov-24 20:31N 48°08' W 123°27'0 0.0
2017-Nov-24 18:14N 48°08' W 123°27'0 0.0
2017-Nov-24 10:22N 48°08' W 123°27'0 0.0
2017-Nov-24 08:09N 48°08' W 123°27'0 0.0
2017-Nov-23 23:03N 48°08' W 123°27'0 0.0
2017-Nov-23 22:04N 48°08' W 123°27'0 0.0
2017-Nov-23 21:34N 48°08' W 123°27'0 0.0
2017-Nov-23 21:25N 48°08' W 123°27'0 0.0
2017-Nov-23 20:11N 48°08' W 123°27'0 0.1
2017-Nov-23 19:56N 48°08' W 123°27'0 0.0
2017-Nov-23 19:20N 48°08' W 123°27'0 0.0
2017-Nov-23 16:02N 48°08' W 123°27'0 0.0
2017-Nov-23 15:47N 48°08' W 123°27'0 0.0
2017-Nov-23 15:29N 48°08' W 123°27'0 0.0
2017-Nov-23 14:59N 48°08' W 123°27'0 0.0
2017-Nov-23 13:10N 48°08' W 123°27'0 0.0
2017-Nov-23 11:49N 48°08' W 123°27'0 0.0
2017-Nov-23 11:23N 48°08' W 123°27'0 0.0
2017-Nov-23 10:50N 48°08' W 123°27'0 0.0
2017-Nov-23 10:23N 48°08' W 123°27'0 0.0
2017-Nov-23 07:34N 48°08' W 123°27'0 0.1
2017-Nov-23 07:28N 48°08' W 123°27'0 0.0
2017-Nov-23 05:00N 48°08' W 123°27'0 0.0
2017-Nov-23 02:08N 48°08' W 123°27'0 0.0
2017-Nov-22 21:02N 48°08' W 123°27'0 0.0
2017-Nov-22 19:01N 48°08' W 123°27'  
2017-Nov-20 00:06N 48°08' W 123°27'0 0.0
2017-Nov-19 20:03N 48°08' W 123°27'0 0.1
2017-Nov-19 20:00N 48°08' W 123°27'0 0.0
2017-Nov-19 15:45N 48°08' W 123°27'0 0.0
2017-Nov-19 15:30N 48°08' W 123°27'0 0.0
2017-Nov-19 15:00N 48°08' W 123°27'0 0.0
2017-Nov-19 13:25N 48°08' W 123°27'0 0.0
2017-Nov-19 10:27N 48°08' W 123°27'0 0.0
2017-Nov-19 09:40N 48°08' W 123°27'0 0.0
2017-Nov-19 04:19N 48°08' W 123°27'0 0.0
2017-Nov-19 03:58N 48°08' W 123°27'0 0.0
2017-Nov-19 00:34N 48°08' W 123°27'0 0.0
2017-Nov-19 00:10N 48°08' W 123°27'0 0.0
2017-Nov-18 15:52N 48°08' W 123°27'0 0.0
2017-Nov-18 14:03N 48°08' W 123°27'0 0.0
2017-Nov-18 03:01N 48°08' W 123°27'0 0.0
2017-Nov-18 02:50N 48°08' W 123°27'0 0.0
2017-Nov-17 22:28N 48°08' W 123°27'0 0.0
2017-Nov-17 18:01N 48°08' W 123°27'0 0.0
2017-Nov-17 17:58N 48°08' W 123°27'0 0.0
2017-Nov-17 17:20N 48°08' W 123°27'0 0.0
2017-Nov-17 16:56N 48°08' W 123°27'0 0.0
2017-Nov-17 16:29N 48°08' W 123°27'0 0.0
2017-Nov-17 13:52N 48°08' W 123°27'0 0.0
2017-Nov-17 13:23N 48°08' W 123°27'0 0.0
2017-Nov-17 09:37N 48°08' W 123°27'0 0.1
2017-Nov-17 09:28N 48°08' W 123°27'0 0.0
2017-Nov-17 08:58N 48°08' W 123°27'0 0.0
2017-Nov-17 05:52N 48°08' W 123°27'0 0.0
2017-Nov-16 15:46N 48°08' W 123°27'0 0.0
2017-Nov-16 03:06N 48°08' W 123°27'  

Dump ship's entire track history